createdAt,value
2018-12-01T00:00:44.612Z,95.52
2018-12-01T00:05:48.416Z,95.49
2018-12-01T00:16:15.313Z,95.95
2018-12-01T00:21:18.798Z,96.29
2018-12-01T00:26:22.312Z,95.78
2018-12-01T00:31:25.872Z,95.09
2018-12-01T00:36:29.341Z,95.10
2018-12-01T00:41:32.864Z,95.16
2018-12-01T00:46:36.370Z,95.30
2018-12-01T00:51:39.850Z,95.27
2018-12-01T00:56:43.378Z,95.36
2018-12-01T01:01:46.945Z,95.77
2018-12-01T01:06:50.590Z,96.91
2018-12-01T01:11:54.166Z,96.85
2018-12-01T01:16:57.661Z,96.30
2018-12-01T01:22:01.122Z,96.02
2018-12-01T01:27:04.848Z,96.02
2018-12-01T01:32:08.484Z,96.25
2018-12-01T01:37:28.367Z,96.87
2018-12-01T01:42:31.899Z,96.87
2018-12-01T01:47:35.389Z,96.99
2018-12-01T01:52:39.049Z,96.33
2018-12-01T01:57:42.685Z,95.32
2018-12-01T02:02:55.384Z,95.29
2018-12-01T02:07:58.908Z,95.05
2018-12-01T02:13:02.488Z,96.11
2018-12-01T02:18:06.746Z,95.29
2018-12-01T02:23:10.344Z,95.88
2018-12-01T02:28:14.178Z,96.02
2018-12-01T02:33:17.733Z,95.39
2018-12-01T02:38:24.169Z,94.92
2018-12-01T02:43:28.101Z,96.53
2018-12-01T02:48:31.562Z,95.73
2018-12-01T02:53:35.132Z,95.21
2018-12-01T02:58:38.764Z,95.96
2018-12-01T03:03:42.283Z,95.99
2018-12-01T03:08:45.748Z,96.27
2018-12-01T03:13:49.368Z,96.79
2018-12-01T03:18:53.889Z,96.62
2018-12-01T03:23:57.434Z,96.93
2018-12-01T03:29:01.037Z,96.37
2018-12-01T03:34:04.724Z,96.19
2018-12-01T03:39:09.837Z,95.66
2018-12-01T03:44:13.359Z,94.84
2018-12-01T03:49:16.809Z,95.32
2018-12-01T03:54:20.305Z,95.56
2018-12-01T03:59:23.781Z,96.70
2018-12-01T04:04:27.324Z,97.20
2018-12-01T04:09:30.776Z,96.02
2018-12-01T04:14:34.270Z,94.89
2018-12-01T04:19:37.764Z,95.24
2018-12-01T04:24:41.283Z,94.77
2018-12-01T04:29:45.129Z,95.73
2018-12-01T04:34:48.592Z,96.66
2018-12-01T04:39:52.088Z,96.62
2018-12-01T04:44:55.620Z,95.53
2018-12-01T04:49:59.108Z,94.65
2018-12-01T04:55:02.669Z,95.14
2018-12-01T05:00:08.733Z,96.96
2018-12-01T05:05:16.446Z,96.37
2018-12-01T05:10:22.122Z,96.65
2018-12-01T05:15:25.624Z,96.51
2018-12-01T05:20:29.204Z,97.44
2018-12-01T05:25:32.683Z,96.30
2018-12-01T05:30:36.345Z,96.65
2018-12-01T05:35:39.918Z,96.56
2018-12-01T05:40:43.373Z,96.66
2018-12-01T05:45:46.977Z,97.03
2018-12-01T05:50:51.528Z,97.53
2018-12-01T05:55:54.976Z,97.32
2018-12-01T06:00:58.445Z,97.07
2018-12-01T06:06:01.949Z,97.32
2018-12-01T06:11:05.857Z,97.50
2018-12-01T06:16:09.382Z,97.54
2018-12-01T06:21:12.889Z,97.53
2018-12-01T06:26:16.388Z,97.58
2018-12-01T06:31:20.092Z,97.30
2018-12-01T06:36:24.793Z,97.08
2018-12-01T06:41:28.342Z,96.94
2018-12-01T06:46:31.904Z,96.66
2018-12-01T06:51:36.274Z,97.15
2018-12-01T06:56:39.056Z,97.05
2018-12-01T07:01:42.629Z,97.01
2018-12-01T07:06:46.224Z,96.75
2018-12-01T07:11:50.046Z,96.73
2018-12-01T07:16:53.949Z,96.28
2018-12-01T07:21:57.690Z,96.57
2018-12-01T07:27:01.304Z,96.15
2018-12-01T07:32:05.125Z,95.96
2018-12-01T07:37:08.664Z,96.31
2018-12-01T07:42:12.193Z,95.88
2018-12-01T07:47:15.707Z,96.22
2018-12-01T07:52:19.204Z,96.27
2018-12-01T07:57:22.728Z,96.00
2018-12-01T08:02:26.552Z,96.12
2018-12-01T08:07:30.285Z,96.63
2018-12-01T08:12:33.897Z,95.86
2018-12-01T08:17:37.905Z,96.16
2018-12-01T08:22:41.447Z,95.82
2018-12-01T08:27:45.523Z,95.71
2018-12-01T08:32:49.141Z,95.25
2018-12-01T08:37:53.068Z,94.47
2018-12-01T08:42:56.734Z,94.65
2018-12-01T08:48:00.452Z,95.06
2018-12-01T08:53:03.964Z,93.99
2018-12-01T08:58:07.429Z,93.57
2018-12-01T09:03:16.573Z,93.28
2018-12-01T09:08:20.025Z,94.43
2018-12-01T09:13:23.649Z,95.10
2018-12-01T09:18:27.128Z,93.05
2018-12-01T09:23:38.587Z,94.26
2018-12-01T09:28:42.623Z,93.77
2018-12-01T09:33:46.229Z,94.46
2018-12-01T09:38:49.923Z,93.26
2018-12-01T09:43:53.580Z,93.84
2018-12-01T09:48:57.146Z,93.35
2018-12-01T09:54:00.633Z,87.36
2018-12-01T09:59:04.221Z,85.68
2018-12-01T10:04:07.829Z,86.60
2018-12-01T10:09:11.389Z,86.94
2018-12-01T10:14:14.923Z,89.76
2018-12-01T10:19:18.422Z,89.19
2018-12-01T10:24:21.969Z,91.16
2018-12-01T10:29:25.485Z,90.99
2018-12-01T10:34:29.004Z,91.77
2018-12-01T10:39:32.500Z,92.73
2018-12-01T10:44:35.953Z,91.61
2018-12-01T10:49:39.505Z,90.16
2018-12-01T10:54:43.105Z,88.71
2018-12-01T10:59:48.029Z,86.42
2018-12-01T11:04:51.704Z,84.97
2018-12-01T11:09:55.257Z,85.40
2018-12-01T11:14:58.828Z,85.76
2018-12-01T11:20:02.397Z,85.42
2018-12-01T11:25:08.436Z,85.35
2018-12-01T11:30:14.349Z,86.26
2018-12-01T11:35:18.092Z,87.31
2018-12-01T11:40:22.284Z,85.94
2018-12-01T11:45:25.860Z,86.29
2018-12-01T11:50:29.401Z,86.89
2018-12-01T11:55:32.961Z,86.72
2018-12-01T12:00:37.221Z,87.43
2018-12-01T12:05:40.741Z,87.08
2018-12-01T12:10:44.357Z,86.70
2018-12-01T12:15:49.513Z,86.78
2018-12-01T12:20:53.049Z,87.38
2018-12-01T12:25:56.639Z,86.89
2018-12-01T12:31:00.193Z,86.94
2018-12-01T12:36:04.125Z,86.53
2018-12-01T12:41:07.712Z,86.15
2018-12-01T12:46:11.428Z,86.28
2018-12-01T12:51:14.928Z,86.55
2018-12-01T12:56:18.525Z,84.80
2018-12-01T13:01:22.069Z,85.33
2018-12-01T13:06:25.614Z,85.17
2018-12-01T13:11:30.141Z,84.65
2018-12-01T13:16:33.632Z,82.67
2018-12-01T13:21:37.233Z,82.93
2018-12-01T13:26:40.768Z,82.07
2018-12-01T13:31:44.405Z,82.91
2018-12-01T13:36:48.049Z,82.26
2018-12-01T13:41:55.577Z,82.60
2018-12-01T13:46:59.225Z,83.85
2018-12-01T13:52:03.812Z,83.30
2018-12-01T13:57:07.561Z,83.79
2018-12-01T14:02:11.141Z,83.24
2018-12-01T14:07:14.721Z,82.96
2018-12-01T14:12:18.295Z,82.41
2018-12-01T14:17:21.810Z,82.15
2018-12-01T14:22:25.315Z,83.46
2018-12-01T14:27:28.884Z,84.80
2018-12-01T14:32:32.344Z,83.21
2018-12-01T14:37:35.852Z,83.00
2018-12-01T14:42:39.523Z,83.09
2018-12-01T14:47:43.131Z,83.43
2018-12-01T14:52:46.901Z,81.97
2018-12-01T14:57:50.392Z,82.72
2018-12-01T15:02:55.881Z,82.40
2018-12-01T15:07:59.480Z,82.94
2018-12-01T15:13:03.026Z,82.63
2018-12-01T15:18:06.781Z,82.14
2018-12-01T15:23:10.290Z,82.14
2018-12-01T15:28:13.875Z,83.12
2018-12-01T15:33:17.469Z,81.43
2018-12-01T15:38:21.181Z,81.87
2018-12-01T15:43:24.678Z,81.49
2018-12-01T15:48:28.185Z,81.49
2018-12-01T15:53:31.684Z,81.63
2018-12-01T15:58:35.192Z,81.01
2018-12-01T16:03:38.811Z,81.68
2018-12-01T16:08:42.520Z,81.86
2018-12-01T16:13:46.201Z,81.99
2018-12-01T16:18:49.796Z,82.13
2018-12-01T16:23:53.381Z,82.72
2018-12-01T16:28:58.965Z,83.05
2018-12-01T16:34:02.540Z,83.23
2018-12-01T16:39:09.604Z,83.47
2018-12-01T16:44:13.221Z,83.64
2018-12-01T16:49:16.730Z,84.40
2018-12-01T16:54:20.318Z,85.01
2018-12-01T16:59:23.933Z,85.19
2018-12-01T17:04:27.433Z,85.97
2018-12-01T17:09:30.954Z,86.90
2018-12-01T17:14:34.517Z,87.63
2018-12-01T17:19:44.086Z,86.72
2018-12-01T17:24:47.630Z,87.60
2018-12-01T17:29:51.105Z,88.32
2018-12-01T17:34:54.613Z,88.59
2018-12-01T17:39:58.228Z,88.41
2018-12-01T17:45:01.777Z,87.95
2018-12-01T17:50:14.908Z,88.42
2018-12-01T17:55:18.530Z,89.13
2018-12-01T18:00:24.427Z,89.75
2018-12-01T18:05:36.206Z,89.83
2018-12-01T18:10:39.681Z,89.77
2018-12-01T18:15:43.291Z,90.70
2018-12-01T18:20:46.861Z,90.85
2018-12-01T18:25:53.068Z,90.56
2018-12-01T18:30:57.523Z,90.38
2018-12-01T18:36:03.172Z,90.74
2018-12-01T18:41:07.834Z,91.26
2018-12-01T18:46:13.357Z,90.62
2018-12-01T18:51:17.880Z,91.22
2018-12-01T18:56:21.412Z,91.69
2018-12-01T19:01:24.893Z,92.30
2018-12-01T19:06:28.438Z,91.82
2018-12-01T19:11:32.046Z,92.75
2018-12-01T19:16:35.709Z,91.23
2018-12-01T19:21:39.243Z,90.98
2018-12-01T19:26:42.883Z,91.25
2018-12-01T19:31:46.520Z,90.26
2018-12-01T19:36:50.022Z,89.77
2018-12-01T19:41:53.701Z,89.84
2018-12-01T19:46:57.379Z,90.98
2018-12-01T19:52:01.947Z,89.99
2018-12-01T19:57:05.941Z,90.68
2018-12-01T20:02:09.465Z,91.22
2018-12-01T20:07:12.960Z,89.83
2018-12-01T20:12:16.449Z,89.92
2018-12-01T20:17:20.085Z,90.19
2018-12-01T20:22:23.693Z,90.28
2018-12-01T20:27:27.199Z,89.26
2018-12-01T20:32:30.753Z,89.35
2018-12-01T20:37:34.283Z,89.62
2018-12-01T20:42:37.928Z,89.31
2018-12-01T20:47:41.565Z,88.83
2018-12-01T20:52:46.868Z,89.02
2018-12-01T20:57:53.291Z,90.12
2018-12-01T21:02:56.890Z,91.20
2018-12-01T21:08:02.439Z,91.03
2018-12-01T21:13:05.321Z,91.05
2018-12-01T21:18:09.122Z,91.52
2018-12-01T21:23:13.886Z,90.88
2018-12-01T21:28:17.561Z,90.44
2018-12-01T21:33:24.069Z,90.86
2018-12-01T21:38:27.788Z,90.53
2018-12-01T21:43:31.416Z,90.64
2018-12-01T21:48:34.941Z,89.70
2018-12-01T21:53:38.465Z,89.37
2018-12-01T21:58:42.048Z,89.46
2018-12-01T22:03:45.787Z,89.29
2018-12-01T22:08:49.329Z,89.39
2018-12-01T22:13:52.960Z,89.92
2018-12-01T22:18:56.725Z,89.36
2018-12-01T22:24:00.302Z,89.60
2018-12-01T22:29:03.986Z,89.22
2018-12-01T22:34:07.525Z,89.33
2018-12-01T22:39:13.261Z,89.53
2018-12-01T22:44:16.866Z,89.50
2018-12-01T22:49:20.352Z,89.19
2018-12-01T22:54:23.913Z,88.84
2018-12-01T22:59:27.480Z,89.32
2018-12-01T23:04:31.195Z,88.94
2018-12-01T23:09:34.828Z,88.51
2018-12-01T23:14:39.464Z,89.03
2018-12-01T23:19:43.189Z,89.36
2018-12-01T23:24:46.914Z,89.38
2018-12-01T23:29:50.508Z,89.07
2018-12-01T23:34:54.342Z,89.40
2018-12-01T23:39:57.994Z,88.34
2018-12-01T23:45:01.670Z,89.45
2018-12-01T23:50:22.883Z,88.88
2018-12-01T23:55:26.505Z,89.58
